sensor_id;sensor_type;location;lat;lon;timestamp;P1;durP1;ratioP1;P2;durP2;ratioP2
34278;SDS011;20538;51.528;9.942;2023-04-29T00:01:11;28.85;;;16.35;;
34278;SDS011;20538;51.528;9.942;2023-04-29T00:03:37;26.42;;;16.20;;
34278;SDS011;20538;51.528;9.942;2023-04-29T00:06:03;27.25;;;16.08;;
34278;SDS011;20538;51.528;9.942;2023-04-29T00:08:29;25.55;;;15.55;;
34278;SDS011;20538;51.528;9.942;2023-04-29T00:10:54;26.70;;;15.93;;
34278;SDS011;20538;51.528;9.942;2023-04-29T00:13:20;26.27;;;15.98;;
34278;SDS011;20538;51.528;9.942;2023-04-29T00:15:46;27.67;;;17.00;;
34278;SDS011;20538;51.528;9.942;2023-04-29T00:18:12;28.15;;;16.70;;
34278;SDS011;20538;51.528;9.942;2023-04-29T00:20:38;28.48;;;17.13;;
34278;SDS011;20538;51.528;9.942;2023-04-29T00:23:04;33.10;;;18.02;;
34278;SDS011;20538;51.528;9.942;2023-04-29T00:25:30;29.83;;;16.92;;
34278;SDS011;20538;51.528;9.942;2023-04-29T00:27:56;29.58;;;17.10;;
34278;SDS011;20538;51.528;9.942;2023-04-29T00:30:25;30.83;;;17.77;;
34278;SDS011;20538;51.528;9.942;2023-04-29T00:32:52;30.63;;;18.17;;
34278;SDS011;20538;51.528;9.942;2023-04-29T00:35:19;32.70;;;18.45;;
34278;SDS011;20538;51.528;9.942;2023-04-29T00:37:44;31.77;;;18.92;;
34278;SDS011;20538;51.528;9.942;2023-04-29T00:40:10;34.03;;;18.58;;
34278;SDS011;20538;51.528;9.942;2023-04-29T00:42:39;32.95;;;19.73;;
34278;SDS011;20538;51.528;9.942;2023-04-29T00:45:05;32.80;;;18.98;;
34278;SDS011;20538;51.528;9.942;2023-04-29T00:47:31;33.78;;;19.45;;
34278;SDS011;20538;51.528;9.942;2023-04-29T00:49:57;33.63;;;18.90;;
34278;SDS011;20538;51.528;9.942;2023-04-29T00:52:22;29.50;;;17.58;;
34278;SDS011;20538;51.528;9.942;2023-04-29T00:54:49;32.45;;;18.23;;
34278;SDS011;20538;51.528;9.942;2023-04-29T00:57:16;32.20;;;18.65;;
34278;SDS011;20538;51.528;9.942;2023-04-29T00:59:43;29.13;;;17.15;;
34278;SDS011;20538;51.528;9.942;2023-04-29T01:02:09;28.13;;;17.10;;
34278;SDS011;20538;51.528;9.942;2023-04-29T01:04:36;27.77;;;16.23;;
34278;SDS011;20538;51.528;9.942;2023-04-29T01:12:31;25.90;;;14.80;;
34278;SDS011;20538;51.528;9.942;2023-04-29T01:18:28;24.23;;;14.15;;
34278;SDS011;20538;51.528;9.942;2023-04-29T01:20:58;27.02;;;15.32;;
34278;SDS011;20538;51.528;9.942;2023-04-29T01:23:25;25.45;;;14.10;;
34278;SDS011;20538;51.528;9.942;2023-04-29T01:25:51;23.70;;;13.77;;
34278;SDS011;20538;51.528;9.942;2023-04-29T01:28:23;24.50;;;14.45;;
34278;SDS011;20538;51.528;9.942;2023-04-29T01:31:16;22.23;;;13.55;;
34278;SDS011;20538;51.528;9.942;2023-04-29T01:39:40;25.58;;;14.43;;
34278;SDS011;20538;51.528;9.942;2023-04-29T01:44:44;25.77;;;13.82;;
34278;SDS011;20538;51.528;9.942;2023-04-29T01:47:13;25.42;;;14.50;;
34278;SDS011;20538;51.528;9.942;2023-04-29T01:49:39;24.20;;;14.73;;
34278;SDS011;20538;51.528;9.942;2023-04-29T01:52:05;26.90;;;14.80;;
34278;SDS011;20538;51.528;9.942;2023-04-29T01:54:33;26.38;;;15.00;;
34278;SDS011;20538;51.528;9.942;2023-04-29T01:57:00;25.17;;;14.00;;
34278;SDS011;20538;51.528;9.942;2023-04-29T01:59:27;27.10;;;15.07;;
34278;SDS011;20538;51.528;9.942;2023-04-29T02:01:52;21.30;;;13.07;;
34278;SDS011;20538;51.528;9.942;2023-04-29T02:04:20;29.65;;;14.10;;
34278;SDS011;20538;51.528;9.942;2023-04-29T02:06:46;24.48;;;14.43;;
34278;SDS011;20538;51.528;9.942;2023-04-29T02:09:11;24.85;;;14.73;;
34278;SDS011;20538;51.528;9.942;2023-04-29T02:11:37;24.85;;;14.85;;
34278;SDS011;20538;51.528;9.942;2023-04-29T02:14:02;23.92;;;15.20;;
34278;SDS011;20538;51.528;9.942;2023-04-29T02:16:28;26.08;;;14.35;;
34278;SDS011;20538;51.528;9.942;2023-04-29T02:18:54;25.80;;;14.95;;
34278;SDS011;20538;51.528;9.942;2023-04-29T02:21:19;26.45;;;14.80;;
34278;SDS011;20538;51.528;9.942;2023-04-29T02:23:45;28.02;;;15.98;;
34278;SDS011;20538;51.528;9.942;2023-04-29T02:26:10;30.45;;;15.20;;
34278;SDS011;20538;51.528;9.942;2023-04-29T02:28:37;27.45;;;16.02;;
34278;SDS011;20538;51.528;9.942;2023-04-29T02:31:03;22.85;;;14.18;;
34278;SDS011;20538;51.528;9.942;2023-04-29T02:33:29;24.63;;;15.77;;
34278;SDS011;20538;51.528;9.942;2023-04-29T02:35:54;24.77;;;15.38;;
34278;SDS011;20538;51.528;9.942;2023-04-29T02:38:20;26.48;;;15.65;;
34278;SDS011;20538;51.528;9.942;2023-04-29T02:40:46;25.25;;;15.00;;
34278;SDS011;20538;51.528;9.942;2023-04-29T02:43:11;23.10;;;14.77;;
34278;SDS011;20538;51.528;9.942;2023-04-29T02:45:37;29.55;;;15.77;;
34278;SDS011;20538;51.528;9.942;2023-04-29T02:48:04;26.92;;;15.95;;
34278;SDS011;20538;51.528;9.942;2023-04-29T02:50:30;26.95;;;16.23;;
34278;SDS011;20538;51.528;9.942;2023-04-29T02:52:57;27.30;;;15.85;;
34278;SDS011;20538;51.528;9.942;2023-04-29T02:55:22;25.88;;;16.20;;
34278;SDS011;20538;51.528;9.942;2023-04-29T02:57:48;28.35;;;16.13;;
34278;SDS011;20538;51.528;9.942;2023-04-29T03:00:13;27.10;;;16.25;;
34278;SDS011;20538;51.528;9.942;2023-04-29T03:02:39;26.95;;;16.25;;
34278;SDS011;20538;51.528;9.942;2023-04-29T03:05:06;30.33;;;16.50;;
34278;SDS011;20538;51.528;9.942;2023-04-29T03:07:31;25.90;;;15.73;;
34278;SDS011;20538;51.528;9.942;2023-04-29T03:09:57;25.50;;;15.13;;
34278;SDS011;20538;51.528;9.942;2023-04-29T03:12:23;32.63;;;17.50;;
34278;SDS011;20538;51.528;9.942;2023-04-29T03:14:48;29.27;;;17.45;;
34278;SDS011;20538;51.528;9.942;2023-04-29T03:17:14;29.52;;;17.63;;
34278;SDS011;20538;51.528;9.942;2023-04-29T03:19:40;29.42;;;17.15;;
34278;SDS011;20538;51.528;9.942;2023-04-29T03:22:06;25.75;;;15.73;;
34278;SDS011;20538;51.528;9.942;2023-04-29T03:24:35;26.63;;;15.18;;
34278;SDS011;20538;51.528;9.942;2023-04-29T03:27:01;24.80;;;14.02;;
34278;SDS011;20538;51.528;9.942;2023-04-29T03:29:28;20.20;;;11.57;;
34278;SDS011;20538;51.528;9.942;2023-04-29T03:31:54;16.33;;;10.20;;
34278;SDS011;20538;51.528;9.942;2023-04-29T03:34:21;19.20;;;10.57;;
34278;SDS011;20538;51.528;9.942;2023-04-29T03:36:46;16.40;;;10.07;;
34278;SDS011;20538;51.528;9.942;2023-04-29T03:39:12;16.95;;;9.45;;
34278;SDS011;20538;51.528;9.942;2023-04-29T03:41:37;15.93;;;9.80;;
34278;SDS011;20538;51.528;9.942;2023-04-29T03:44:03;17.00;;;10.00;;
34278;SDS011;20538;51.528;9.942;2023-04-29T03:46:29;19.15;;;10.27;;
34278;SDS011;20538;51.528;9.942;2023-04-29T03:48:55;18.83;;;10.27;;
34278;SDS011;20538;51.528;9.942;2023-04-29T03:51:22;16.30;;;10.05;;
34278;SDS011;20538;51.528;9.942;2023-04-29T03:53:48;17.52;;;10.05;;
34278;SDS011;20538;51.528;9.942;2023-04-29T03:56:14;14.57;;;8.77;;
34278;SDS011;20538;51.528;9.942;2023-04-29T03:58:40;17.55;;;9.75;;
34278;SDS011;20538;51.528;9.942;2023-04-29T04:01:06;15.50;;;9.18;;
34278;SDS011;20538;51.528;9.942;2023-04-29T04:03:32;17.65;;;10.35;;
34278;SDS011;20538;51.528;9.942;2023-04-29T04:05:57;20.70;;;11.30;;
34278;SDS011;20538;51.528;9.942;2023-04-29T04:08:23;19.00;;;10.45;;
34278;SDS011;20538;51.528;9.942;2023-04-29T04:10:49;15.80;;;9.57;;
34278;SDS011;20538;51.528;9.942;2023-04-29T04:13:14;23.45;;;10.80;;
34278;SDS011;20538;51.528;9.942;2023-04-29T04:15:40;18.77;;;10.35;;
34278;SDS011;20538;51.528;9.942;2023-04-29T04:18:06;18.65;;;10.45;;
34278;SDS011;20538;51.528;9.942;2023-04-29T04:20:32;18.55;;;10.10;;
34278;SDS011;20538;51.528;9.942;2023-04-29T04:23:01;20.30;;;11.20;;
34278;SDS011;20538;51.528;9.942;2023-04-29T04:25:26;21.00;;;11.35;;
34278;SDS011;20538;51.528;9.942;2023-04-29T04:27:52;19.58;;;10.52;;
34278;SDS011;20538;51.528;9.942;2023-04-29T04:30:18;22.30;;;11.25;;
34278;SDS011;20538;51.528;9.942;2023-04-29T04:32:44;22.65;;;12.10;;
34278;SDS011;20538;51.528;9.942;2023-04-29T04:35:10;19.63;;;10.65;;
34278;SDS011;20538;51.528;9.942;2023-04-29T04:37:37;21.60;;;10.98;;
34278;SDS011;20538;51.528;9.942;2023-04-29T04:40:02;22.73;;;11.68;;
34278;SDS011;20538;51.528;9.942;2023-04-29T04:42:28;23.25;;;12.20;;
34278;SDS011;20538;51.528;9.942;2023-04-29T04:44:54;24.08;;;11.98;;
34278;SDS011;20538;51.528;9.942;2023-04-29T04:47:21;25.40;;;12.65;;
34278;SDS011;20538;51.528;9.942;2023-04-29T04:49:46;26.58;;;13.13;;
34278;SDS011;20538;51.528;9.942;2023-04-29T04:52:13;25.67;;;13.63;;
34278;SDS011;20538;51.528;9.942;2023-04-29T04:54:39;22.67;;;12.38;;
34278;SDS011;20538;51.528;9.942;2023-04-29T04:57:05;26.85;;;14.45;;
34278;SDS011;20538;51.528;9.942;2023-04-29T04:59:31;26.15;;;14.05;;
34278;SDS011;20538;51.528;9.942;2023-04-29T05:01:57;27.00;;;14.93;;
34278;SDS011;20538;51.528;9.942;2023-04-29T05:04:23;26.13;;;14.23;;
34278;SDS011;20538;51.528;9.942;2023-04-29T05:06:48;29.35;;;14.63;;
34278;SDS011;20538;51.528;9.942;2023-04-29T05:09:15;24.27;;;13.63;;
34278;SDS011;20538;51.528;9.942;2023-04-29T05:11:40;27.38;;;14.50;;
34278;SDS011;20538;51.528;9.942;2023-04-29T05:14:06;26.25;;;14.25;;
34278;SDS011;20538;51.528;9.942;2023-04-29T05:16:31;24.85;;;14.15;;
34278;SDS011;20538;51.528;9.942;2023-04-29T05:18:57;26.13;;;14.77;;
34278;SDS011;20538;51.528;9.942;2023-04-29T05:21:23;26.45;;;14.90;;
34278;SDS011;20538;51.528;9.942;2023-04-29T05:23:48;24.55;;;14.18;;
34278;SDS011;20538;51.528;9.942;2023-04-29T05:26:14;27.05;;;15.73;;
34278;SDS011;20538;51.528;9.942;2023-04-29T05:28:40;27.92;;;16.20;;
34278;SDS011;20538;51.528;9.942;2023-04-29T05:31:05;29.75;;;14.80;;
34278;SDS011;20538;51.528;9.942;2023-04-29T05:33:31;27.33;;;15.60;;
34278;SDS011;20538;51.528;9.942;2023-04-29T05:35:57;30.55;;;16.23;;
34278;SDS011;20538;51.528;9.942;2023-04-29T05:38:22;29.60;;;15.48;;
34278;SDS011;20538;51.528;9.942;2023-04-29T05:40:53;27.13;;;15.13;;
34278;SDS011;20538;51.528;9.942;2023-04-29T05:43:21;25.45;;;13.98;;
34278;SDS011;20538;51.528;9.942;2023-04-29T05:45:46;27.88;;;15.07;;
34278;SDS011;20538;51.528;9.942;2023-04-29T05:48:12;27.02;;;13.38;;
34278;SDS011;20538;51.528;9.942;2023-04-29T05:50:38;26.65;;;14.82;;
34278;SDS011;20538;51.528;9.942;2023-04-29T05:53:04;30.38;;;16.58;;
34278;SDS011;20538;51.528;9.942;2023-04-29T05:55:29;26.60;;;14.70;;
34278;SDS011;20538;51.528;9.942;2023-04-29T05:57:55;28.75;;;15.30;;
34278;SDS011;20538;51.528;9.942;2023-04-29T06:00:21;32.50;;;15.85;;
34278;SDS011;20538;51.528;9.942;2023-04-29T06:02:47;28.08;;;14.93;;
34278;SDS011;20538;51.528;9.942;2023-04-29T06:05:13;30.20;;;15.60;;
34278;SDS011;20538;51.528;9.942;2023-04-29T06:07:39;32.63;;;17.10;;
34278;SDS011;20538;51.528;9.942;2023-04-29T06:10:06;31.30;;;16.35;;
34278;SDS011;20538;51.528;9.942;2023-04-29T06:12:32;32.40;;;16.40;;
34278;SDS011;20538;51.528;9.942;2023-04-29T06:14:58;29.50;;;15.57;;
34278;SDS011;20538;51.528;9.942;2023-04-29T06:17:23;28.85;;;15.32;;
34278;SDS011;20538;51.528;9.942;2023-04-29T06:19:49;27.73;;;14.60;;
34278;SDS011;20538;51.528;9.942;2023-04-29T06:22:15;26.40;;;15.00;;
34278;SDS011;20538;51.528;9.942;2023-04-29T06:24:41;25.85;;;14.43;;
34278;SDS011;20538;51.528;9.942;2023-04-29T06:27:06;25.70;;;13.73;;
34278;SDS011;20538;51.528;9.942;2023-04-29T06:29:32;26.73;;;13.05;;
34278;SDS011;20538;51.528;9.942;2023-04-29T06:31:58;21.40;;;13.07;;
34278;SDS011;20538;51.528;9.942;2023-04-29T06:34:23;25.73;;;12.88;;
34278;SDS011;20538;51.528;9.942;2023-04-29T06:36:49;21.73;;;12.30;;
34278;SDS011;20538;51.528;9.942;2023-04-29T06:39:15;20.10;;;10.85;;
34278;SDS011;20538;51.528;9.942;2023-04-29T06:41:41;22.33;;;10.90;;
34278;SDS011;20538;51.528;9.942;2023-04-29T06:44:06;21.13;;;11.50;;
34278;SDS011;20538;51.528;9.942;2023-04-29T06:46:32;19.13;;;10.63;;
34278;SDS011;20538;51.528;9.942;2023-04-29T06:48:58;16.13;;;9.48;;
34278;SDS011;20538;51.528;9.942;2023-04-29T06:51:23;18.90;;;10.02;;
34278;SDS011;20538;51.528;9.942;2023-04-29T06:53:49;15.35;;;9.32;;
34278;SDS011;20538;51.528;9.942;2023-04-29T06:56:15;14.48;;;9.05;;
34278;SDS011;20538;51.528;9.942;2023-04-29T06:58:40;15.80;;;9.27;;
34278;SDS011;20538;51.528;9.942;2023-04-29T07:01:06;14.75;;;8.60;;
34278;SDS011;20538;51.528;9.942;2023-04-29T07:03:32;13.52;;;8.80;;
34278;SDS011;20538;51.528;9.942;2023-04-29T07:05:58;14.40;;;8.38;;
34278;SDS011;20538;51.528;9.942;2023-04-29T07:08:23;15.23;;;8.77;;
34278;SDS011;20538;51.528;9.942;2023-04-29T07:10:56;16.00;;;9.15;;
34278;SDS011;20538;51.528;9.942;2023-04-29T07:13:22;15.52;;;8.70;;
34278;SDS011;20538;51.528;9.942;2023-04-29T07:15:48;16.58;;;9.32;;
34278;SDS011;20538;51.528;9.942;2023-04-29T07:18:14;12.88;;;8.23;;
34278;SDS011;20538;51.528;9.942;2023-04-29T07:20:40;14.45;;;8.38;;
34278;SDS011;20538;51.528;9.942;2023-04-29T07:23:06;16.38;;;8.88;;
34278;SDS011;20538;51.528;9.942;2023-04-29T07:25:32;17.13;;;9.60;;
34278;SDS011;20538;51.528;9.942;2023-04-29T07:27:58;17.33;;;10.13;;
34278;SDS011;20538;51.528;9.942;2023-04-29T07:30:23;17.40;;;9.10;;
34278;SDS011;20538;51.528;9.942;2023-04-29T07:32:49;16.75;;;9.85;;
34278;SDS011;20538;51.528;9.942;2023-04-29T07:35:14;22.35;;;10.13;;
34278;SDS011;20538;51.528;9.942;2023-04-29T07:37:40;18.80;;;10.50;;
34278;SDS011;20538;51.528;9.942;2023-04-29T07:40:07;20.42;;;11.05;;
34278;SDS011;20538;51.528;9.942;2023-04-29T07:42:33;18.45;;;11.20;;
34278;SDS011;20538;51.528;9.942;2023-04-29T07:44:59;20.50;;;11.38;;
34278;SDS011;20538;51.528;9.942;2023-04-29T07:47:25;22.58;;;12.45;;
34278;SDS011;20538;51.528;9.942;2023-04-29T07:49:51;23.75;;;13.55;;
34278;SDS011;20538;51.528;9.942;2023-04-29T07:52:16;23.20;;;13.23;;
34278;SDS011;20538;51.528;9.942;2023-04-29T07:54:42;26.65;;;14.90;;
34278;SDS011;20538;51.528;9.942;2023-04-29T07:57:08;26.27;;;13.70;;
34278;SDS011;20538;51.528;9.942;2023-04-29T07:59:34;25.48;;;14.23;;
34278;SDS011;20538;51.528;9.942;2023-04-29T08:01:59;24.83;;;14.80;;
34278;SDS011;20538;51.528;9.942;2023-04-29T08:04:25;31.17;;;16.50;;
34278;SDS011;20538;51.528;9.942;2023-04-29T08:06:51;29.83;;;15.65;;
34278;SDS011;20538;51.528;9.942;2023-04-29T08:09:17;31.75;;;15.48;;
34278;SDS011;20538;51.528;9.942;2023-04-29T08:11:42;28.38;;;17.75;;
34278;SDS011;20538;51.528;9.942;2023-04-29T08:14:09;31.88;;;17.38;;
34278;SDS011;20538;51.528;9.942;2023-04-29T08:16:35;37.50;;;18.13;;
34278;SDS011;20538;51.528;9.942;2023-04-29T08:19:00;31.80;;;17.02;;
34278;SDS011;20538;51.528;9.942;2023-04-29T08:21:26;33.38;;;17.48;;
34278;SDS011;20538;51.528;9.942;2023-04-29T08:23:52;35.42;;;16.95;;
34278;SDS011;20538;51.528;9.942;2023-04-29T08:26:19;30.05;;;18.52;;
34278;SDS011;20538;51.528;9.942;2023-04-29T08:28:46;39.83;;;19.58;;
34278;SDS011;20538;51.528;9.942;2023-04-29T08:31:15;38.53;;;19.27;;
34278;SDS011;20538;51.528;9.942;2023-04-29T08:33:42;38.20;;;19.30;;
34278;SDS011;20538;51.528;9.942;2023-04-29T08:36:08;34.08;;;16.02;;
34278;SDS011;20538;51.528;9.942;2023-04-29T08:38:33;34.20;;;18.85;;
34278;SDS011;20538;51.528;9.942;2023-04-29T08:40:59;38.78;;;19.42;;
34278;SDS011;20538;51.528;9.942;2023-04-29T08:43:25;37.35;;;19.65;;
34278;SDS011;20538;51.528;9.942;2023-04-29T08:45:51;38.55;;;20.27;;
34278;SDS011;20538;51.528;9.942;2023-04-29T08:48:17;33.83;;;17.27;;
34278;SDS011;20538;51.528;9.942;2023-04-29T08:50:43;41.45;;;21.35;;
34278;SDS011;20538;51.528;9.942;2023-04-29T08:53:10;40.53;;;18.75;;
34278;SDS011;20538;51.528;9.942;2023-04-29T08:55:40;44.17;;;21.98;;
34278;SDS011;20538;51.528;9.942;2023-04-29T08:58:08;48.92;;;22.95;;
34278;SDS011;20538;51.528;9.942;2023-04-29T09:00:34;42.88;;;22.50;;
34278;SDS011;20538;51.528;9.942;2023-04-29T09:03:03;43.47;;;19.58;;
34278;SDS011;20538;51.528;9.942;2023-04-29T09:05:40;44.83;;;21.73;;
34278;SDS011;20538;51.528;9.942;2023-04-29T09:08:07;47.00;;;24.15;;
34278;SDS011;20538;51.528;9.942;2023-04-29T09:10:34;46.05;;;22.17;;
34278;SDS011;20538;51.528;9.942;2023-04-29T09:13:01;48.35;;;23.40;;
34278;SDS011;20538;51.528;9.942;2023-04-29T09:15:27;49.42;;;23.45;;
34278;SDS011;20538;51.528;9.942;2023-04-29T09:17:53;42.83;;;21.67;;
34278;SDS011;20538;51.528;9.942;2023-04-29T09:22:51;38.45;;;20.73;;
34278;SDS011;20538;51.528;9.942;2023-04-29T09:25:17;30.95;;;14.93;;
34278;SDS011;20538;51.528;9.942;2023-04-29T09:27:43;34.03;;;20.05;;
34278;SDS011;20538;51.528;9.942;2023-04-29T09:30:09;35.10;;;20.15;;
34278;SDS011;20538;51.528;9.942;2023-04-29T09:32:37;36.42;;;20.45;;
34278;SDS011;20538;51.528;9.942;2023-04-29T09:38:14;35.70;;;20.30;;
34278;SDS011;20538;51.528;9.942;2023-04-29T09:45:38;43.78;;;22.15;;
34278;SDS011;20538;51.528;9.942;2023-04-29T09:48:07;35.55;;;20.70;;
34278;SDS011;20538;51.528;9.942;2023-04-29T09:50:35;33.42;;;19.08;;
34278;SDS011;20538;51.528;9.942;2023-04-29T09:53:01;36.05;;;20.38;;
34278;SDS011;20538;51.528;9.942;2023-04-29T09:55:27;35.97;;;21.40;;
34278;SDS011;20538;51.528;9.942;2023-04-29T09:57:56;33.25;;;19.73;;
34278;SDS011;20538;51.528;9.942;2023-04-29T10:00:22;32.88;;;20.58;;
34278;SDS011;20538;51.528;9.942;2023-04-29T10:02:49;32.88;;;20.23;;
34278;SDS011;20538;51.528;9.942;2023-04-29T10:05:18;32.72;;;20.38;;
34278;SDS011;20538;51.528;9.942;2023-04-29T10:07:45;32.90;;;19.73;;
34278;SDS011;20538;51.528;9.942;2023-04-29T10:10:14;29.55;;;18.73;;
34278;SDS011;20538;51.528;9.942;2023-04-29T10:12:40;29.60;;;17.85;;
34278;SDS011;20538;51.528;9.942;2023-04-29T10:20:19;27.27;;;16.52;;
34278;SDS011;20538;51.528;9.942;2023-04-29T10:22:48;23.00;;;15.10;;
34278;SDS011;20538;51.528;9.942;2023-04-29T10:25:15;25.75;;;15.07;;
34278;SDS011;20538;51.528;9.942;2023-04-29T10:27:42;21.52;;;13.18;;
34278;SDS011;20538;51.528;9.942;2023-04-29T10:30:12;19.92;;;12.27;;
34278;SDS011;20538;51.528;9.942;2023-04-29T10:32:42;17.50;;;11.45;;
34278;SDS011;20538;51.528;9.942;2023-04-29T10:35:09;19.40;;;11.10;;
34278;SDS011;20538;51.528;9.942;2023-04-29T10:37:39;16.45;;;10.68;;
34278;SDS011;20538;51.528;9.942;2023-04-29T10:40:12;13.93;;;10.15;;
34278;SDS011;20538;51.528;9.942;2023-04-29T10:42:48;15.88;;;10.65;;
34278;SDS011;20538;51.528;9.942;2023-04-29T10:45:20;16.60;;;10.57;;
34278;SDS011;20538;51.528;9.942;2023-04-29T10:53:01;15.30;;;10.93;;
34278;SDS011;20538;51.528;9.942;2023-04-29T10:55:28;16.55;;;10.35;;
34278;SDS011;20538;51.528;9.942;2023-04-29T10:57:55;15.35;;;10.50;;
34278;SDS011;20538;51.528;9.942;2023-04-29T11:00:21;14.95;;;9.30;;
34278;SDS011;20538;51.528;9.942;2023-04-29T11:02:55;15.02;;;9.63;;
34278;SDS011;20538;51.528;9.942;2023-04-29T11:10:51;15.18;;;9.88;;
34278;SDS011;20538;51.528;9.942;2023-04-29T11:13:24;16.35;;;10.27;;
34278;SDS011;20538;51.528;9.942;2023-04-29T11:15:51;18.45;;;11.07;;
34278;SDS011;20538;51.528;9.942;2023-04-29T11:18:17;16.75;;;10.55;;
34278;SDS011;20538;51.528;9.942;2023-04-29T11:23:34;12.27;;;9.23;;
34278;SDS011;20538;51.528;9.942;2023-04-29T11:26:00;15.63;;;9.73;;
34278;SDS011;20538;51.528;9.942;2023-04-29T11:28:26;8.65;;;5.13;;
34278;SDS011;20538;51.528;9.942;2023-04-29T11:30:52;19.30;;;9.95;;
34278;SDS011;20538;51.528;9.942;2023-04-29T11:33:21;14.98;;;9.68;;
34278;SDS011;20538;51.528;9.942;2023-04-29T11:35:51;14.55;;;8.30;;
34278;SDS011;20538;51.528;9.942;2023-04-29T11:38:26;16.65;;;10.18;;
34278;SDS011;20538;51.528;9.942;2023-04-29T11:40:54;14.48;;;10.52;;
34278;SDS011;20538;51.528;9.942;2023-04-29T11:43:21;14.20;;;9.90;;
34278;SDS011;20538;51.528;9.942;2023-04-29T11:45:47;13.57;;;9.98;;
34278;SDS011;20538;51.528;9.942;2023-04-29T11:48:31;14.07;;;9.32;;
34278;SDS011;20538;51.528;9.942;2023-04-29T11:50:58;15.15;;;9.13;;
34278;SDS011;20538;51.528;9.942;2023-04-29T11:53:24;17.27;;;10.13;;
34278;SDS011;20538;51.528;9.942;2023-04-29T11:55:52;15.93;;;10.10;;
34278;SDS011;20538;51.528;9.942;2023-04-29T11:58:21;11.82;;;8.45;;
34278;SDS011;20538;51.528;9.942;2023-04-29T12:00:48;12.23;;;8.50;;
34278;SDS011;20538;51.528;9.942;2023-04-29T12:03:16;12.98;;;8.77;;
34278;SDS011;20538;51.528;9.942;2023-04-29T12:05:54;13.63;;;8.82;;
34278;SDS011;20538;51.528;9.942;2023-04-29T12:10:55;15.30;;;8.27;;
34278;SDS011;20538;51.528;9.942;2023-04-29T12:13:26;12.13;;;8.38;;
34278;SDS011;20538;51.528;9.942;2023-04-29T12:15:53;10.48;;;7.55;;
34278;SDS011;20538;51.528;9.942;2023-04-29T12:18:20;10.07;;;7.53;;
34278;SDS011;20538;51.528;9.942;2023-04-29T12:20:47;8.27;;;6.05;;
34278;SDS011;20538;51.528;9.942;2023-04-29T12:23:19;17.35;;;8.38;;
34278;SDS011;20538;51.528;9.942;2023-04-29T12:25:49;10.20;;;6.80;;
34278;SDS011;20538;51.528;9.942;2023-04-29T12:28:19;17.95;;;9.13;;
34278;SDS011;20538;51.528;9.942;2023-04-29T12:30:45;14.23;;;7.93;;
34278;SDS011;20538;51.528;9.942;2023-04-29T12:33:18;14.43;;;6.82;;
34278;SDS011;20538;51.528;9.942;2023-04-29T12:35:46;10.80;;;7.60;;
34278;SDS011;20538;51.528;9.942;2023-04-29T12:38:14;11.30;;;7.50;;
34278;SDS011;20538;51.528;9.942;2023-04-29T12:40:43;11.95;;;7.72;;
34278;SDS011;20538;51.528;9.942;2023-04-29T12:43:09;12.00;;;7.90;;
34278;SDS011;20538;51.528;9.942;2023-04-29T12:45:37;17.67;;;9.07;;
34278;SDS011;20538;51.528;9.942;2023-04-29T12:48:03;17.63;;;8.27;;
34278;SDS011;20538;51.528;9.942;2023-04-29T12:50:33;15.10;;;8.45;;
34278;SDS011;20538;51.528;9.942;2023-04-29T12:53:00;11.75;;;7.47;;
34278;SDS011;20538;51.528;9.942;2023-04-29T12:55:28;11.23;;;7.70;;
34278;SDS011;20538;51.528;9.942;2023-04-29T12:57:53;14.18;;;8.48;;
34278;SDS011;20538;51.528;9.942;2023-04-29T13:00:19;15.23;;;8.20;;
34278;SDS011;20538;51.528;9.942;2023-04-29T13:02:45;14.05;;;7.80;;
34278;SDS011;20538;51.528;9.942;2023-04-29T13:05:11;12.85;;;8.77;;
34278;SDS011;20538;51.528;9.942;2023-04-29T13:07:37;14.80;;;8.88;;
34278;SDS011;20538;51.528;9.942;2023-04-29T13:10:03;18.77;;;9.57;;
34278;SDS011;20538;51.528;9.942;2023-04-29T13:12:33;14.82;;;9.35;;
34278;SDS011;20538;51.528;9.942;2023-04-29T13:14:58;17.83;;;9.98;;
34278;SDS011;20538;51.528;9.942;2023-04-29T13:17:24;14.32;;;9.40;;
34278;SDS011;20538;51.528;9.942;2023-04-29T13:19:50;12.20;;;8.45;;
34278;SDS011;20538;51.528;9.942;2023-04-29T13:22:16;14.18;;;8.20;;
34278;SDS011;20538;51.528;9.942;2023-04-29T13:24:41;17.05;;;9.40;;
34278;SDS011;20538;51.528;9.942;2023-04-29T13:27:07;18.33;;;8.63;;
34278;SDS011;20538;51.528;9.942;2023-04-29T13:29:33;15.23;;;9.35;;
34278;SDS011;20538;51.528;9.942;2023-04-29T13:31:58;17.95;;;9.13;;
34278;SDS011;20538;51.528;9.942;2023-04-29T13:34:24;16.55;;;10.43;;
34278;SDS011;20538;51.528;9.942;2023-04-29T13:36:50;16.58;;;9.82;;
34278;SDS011;20538;51.528;9.942;2023-04-29T13:39:15;16.25;;;9.70;;
34278;SDS011;20538;51.528;9.942;2023-04-29T13:41:41;18.33;;;10.63;;
34278;SDS011;20538;51.528;9.942;2023-04-29T13:44:07;18.02;;;10.30;;
34278;SDS011;20538;51.528;9.942;2023-04-29T13:46:32;16.35;;;9.05;;
34278;SDS011;20538;51.528;9.942;2023-04-29T13:48:58;16.30;;;10.40;;
34278;SDS011;20538;51.528;9.942;2023-04-29T13:51:24;14.23;;;8.85;;
34278;SDS011;20538;51.528;9.942;2023-04-29T13:53:49;14.77;;;9.70;;
34278;SDS011;20538;51.528;9.942;2023-04-29T13:56:15;18.52;;;9.85;;
34278;SDS011;20538;51.528;9.942;2023-04-29T13:58:41;15.80;;;9.32;;
34278;SDS011;20538;51.528;9.942;2023-04-29T14:01:07;16.02;;;10.35;;
34278;SDS011;20538;51.528;9.942;2023-04-29T14:03:32;16.30;;;9.25;;
34278;SDS011;20538;51.528;9.942;2023-04-29T14:05:58;18.45;;;10.23;;
34278;SDS011;20538;51.528;9.942;2023-04-29T14:08:25;15.23;;;10.10;;
34278;SDS011;20538;51.528;9.942;2023-04-29T14:10:50;17.42;;;11.13;;
34278;SDS011;20538;51.528;9.942;2023-04-29T14:13:16;14.90;;;10.02;;
34278;SDS011;20538;51.528;9.942;2023-04-29T14:15:42;17.33;;;10.75;;
34278;SDS011;20538;51.528;9.942;2023-04-29T14:18:07;18.35;;;10.70;;
34278;SDS011;20538;51.528;9.942;2023-04-29T14:20:34;17.60;;;11.02;;
34278;SDS011;20538;51.528;9.942;2023-04-29T14:23:00;17.33;;;10.63;;
34278;SDS011;20538;51.528;9.942;2023-04-29T14:25:26;14.10;;;10.52;;
34278;SDS011;20538;51.528;9.942;2023-04-29T14:27:52;17.33;;;10.30;;
34278;SDS011;20538;51.528;9.942;2023-04-29T14:30:18;15.88;;;10.77;;
34278;SDS011;20538;51.528;9.942;2023-04-29T14:32:44;16.13;;;10.50;;
34278;SDS011;20538;51.528;9.942;2023-04-29T14:35:10;12.07;;;9.38;;
34278;SDS011;20538;51.528;9.942;2023-04-29T14:37:36;14.70;;;9.90;;
34278;SDS011;20538;51.528;9.942;2023-04-29T14:40:02;15.48;;;10.90;;
34278;SDS011;20538;51.528;9.942;2023-04-29T14:42:28;17.10;;;10.90;;
34278;SDS011;20538;51.528;9.942;2023-04-29T14:44:54;14.60;;;10.38;;
34278;SDS011;20538;51.528;9.942;2023-04-29T14:47:20;16.40;;;11.13;;
34278;SDS011;20538;51.528;9.942;2023-04-29T14:49:45;18.27;;;11.00;;
34278;SDS011;20538;51.528;9.942;2023-04-29T14:52:11;16.90;;;11.27;;
34278;SDS011;20538;51.528;9.942;2023-04-29T14:54:38;18.25;;;11.75;;
34278;SDS011;20538;51.528;9.942;2023-04-29T14:57:03;17.83;;;11.32;;
34278;SDS011;20538;51.528;9.942;2023-04-29T14:59:29;16.15;;;11.23;;
34278;SDS011;20538;51.528;9.942;2023-04-29T15:01:56;16.75;;;11.57;;
34278;SDS011;20538;51.528;9.942;2023-04-29T15:04:21;18.92;;;11.55;;
34278;SDS011;20538;51.528;9.942;2023-04-29T15:06:47;17.42;;;13.40;;
34278;SDS011;20538;51.528;9.942;2023-04-29T15:09:13;18.50;;;13.00;;